Date,TemperatureHighF,TemperatureAvgF,TemperatureLowF,DewpointHighF,DewpointAvgF,DewpointLowF,HumidityHigh,HumidityAvg,HumidityLow,PressureMaxIn,PressureMinIn,WindSpeedMaxMPH,WindSpeedAvgMPH,GustSpeedMaxMPH,PrecipitationSumIn
2013-1-1,33.6,26.1,20.0,18.2,13.4,10.2,72,59,42,30.39,30.12,15,1,18,0.00
2013-1-2,34.0,22.6,10.9,10.9,8.2,4.3,78,56,30,30.45,30.32,9,1,11,0.00
2013-1-3,34.4,23.0,13.6,13.7,9.9,6.7,76,58,40,30.54,30.42,6,0,9,0.00
2013-1-4,32.9,20.9,8.5,10.3,6.1,3.0,83,55,33,30.56,30.39,4,0,5,0.00
2013-1-5,40.5,28.0,19.3,13.2,6.2,3.5,53,40,25,30.55,30.43,9,1,12,0.00
2013-1-6,43.0,26.8,14.9,10.9,8.3,4.5,73,47,26,30.55,30.25,7,0,7,0.00
2013-1-7,46.9,36.2,28.2,19.5,14.3,10.1,58,41,30,30.25,29.97,5,0,13,0.00
2013-1-8,47.7,33.4,22.3,15.6,12.8,8.7,60,44,26,30.33,29.99,12,2,16,0.00
2013-1-9,51.5,35.9,22.8,17.7,13.6,9.5,58,41,25,30.51,30.18,4,0,11,0.00
2013-1-10,47.1,35.4,23.9,21.5,14.9,11.3,68,44,28,30.18,29.76,6,0,16,0.00
2013-1-11,40.7,32.1,21.4,22.9,7.2,-5.0,58,35,22,29.95,29.62,28,4,31,0.00
2013-1-12,30.8,19.2,9.7,1.9,-3.4,-9.0,61,36,22,30.22,29.95,15,1,18,0.00
2013-1-13,30.1,19.7,8.1,10.8,0.2,-4.0,69,43,28,30.31,30.16,6,0,12,0.00
2013-1-14,28.0,19.0,11.9,19.9,8.3,-1.0,84,63,42,30.30,30.11,7,0,12,0.02
2013-1-15,22.2,13.4,5.8,4.6,1.0,-2.0,79,58,43,30.67,30.29,12,1,13,0.00
2013-1-16,36.4,23.6,11.7,14.6,7.5,0.4,67,51,39,30.73,30.56,9,1,12,0.00
2013-1-17,49.6,30.8,16.7,19.8,14.3,9.8,79,53,28,30.71,30.51,3,0,6,0.00
2013-1-18,52.4,36.6,26.1,21.0,17.9,15.6,74,48,28,30.51,30.27,4,0,7,0.00
2013-1-19,50.3,35.7,24.6,19.6,16.3,11.7,67,47,26,30.43,30.29,9,1,15,0.00
2013-1-20,52.6,36.3,22.0,18.0,13.6,9.9,70,42,21,30.39,30.23,10,0,13,0.00
2013-1-21,51.5,36.2,21.2,18.6,12.5,7.7,64,39,23,30.38,30.24,9,1,14,0.00
2013-1-22,57.7,40.9,25.3,18.2,14.5,9.5,62,37,16,30.37,30.24,9,1,13,0.00
2013-1-23,59.7,41.7,25.9,16.9,12.5,9.5,54,32,16,30.40,30.27,4,0,10,0.00
2013-1-24,63.1,46.4,30.5,33.6,18.2,8.9,55,34,20,30.32,30.13,7,1,15,0.00
2013-1-25,56.9,47.9,38.5,38.0,33.9,28.8,73,59,49,30.20,30.06,4,0,9,0.00
2013-1-26,54.4,47.6,42.0,47.1,39.9,34.9,87,75,61,30.07,29.79,15,1,23,0.13
2013-1-27,58.0,48.3,41.7,39.8,36.0,32.2,82,64,38,29.91,29.79,11,2,20,0.00
2013-1-28,53.9,44.1,35.5,36.7,31.8,16.4,78,63,38,29.83,29.62,21,4,31,0.02
2013-1-29,35.5,30.2,25.1,19.7,13.6,4.6,68,51,32,30.08,29.66,28,5,32,0.00
2013-1-30,39.1,29.8,20.3,17.2,13.2,7.7,70,51,34,30.35,30.08,21,3,24,0.00
2013-1-31,50.0,37.1,25.7,22.8,19.5,15.5,75,51,29,30.41,30.27,15,1,18,0.00
2013-2-1,54.5,39.2,26.0,22.3,19.3,15.7,69,47,25,30.32,30.18,13,1,16,0.00
2013-2-2,54.9,42.1,29.7,21.6,18.8,14.7,62,41,25,30.39,30.27,5,0,11,0.00
2013-2-3,51.6,40.9,29.6,28.2,18.4,8.5,66,41,27,30.30,29.97,4,0,9,0.00
2013-2-4,56.2,42.8,32.2,28.0,24.4,19.4,76,50,28,30.09,29.96,9,1,13,0.00
2013-2-5,59.0,44.1,33.0,22.6,19.7,16.1,61,40,22,30.09,29.93,8,1,11,0.00
2013-2-6,58.9,44.8,30.2,29.0,21.2,15.9,64,40,29,29.96,29.79,9,1,17,0.00
2013-2-7,55.5,43.8,32.2,26.4,21.9,15.7,67,44,22,30.10,29.93,11,1,17,0.00
2013-2-8,56.0,45.3,32.0,24.7,20.8,17.5,61,39,27,30.06,29.68,21,2,35,0.00
2013-2-9,47.0,37.9,28.5,21.3,13.6,6.7,59,38,25,29.84,29.54,32,5,38,0.00
2013-2-10,41.6,33.9,25.5,19.3,13.5,10.1,65,44,29,30.03,29.84,12,1,17,0.00
2013-2-11,45.4,31.6,21.1,20.8,14.8,5.2,74,53,20,30.10,29.96,13,1,21,0.00
2013-2-12,39.4,29.8,21.2,20.8,12.4,6.2,77,51,25,30.28,29.99,17,2,20,0.00
2013-2-13,45.6,33.3,22.7,17.4,13.1,9.3,64,44,30,30.29,30.13,14,2,18,0.00
2013-2-14,48.9,36.8,25.8,19.4,17.2,14.2,64,46,28,30.24,30.08,20,2,24,0.00
2013-2-15,49.5,37.6,25.2,21.1,15.0,7.3,75,44,18,30.36,30.23,20,2,28,0.00
2013-2-22,40.5,33.2,28.0,22.4,20.0,12.5,70,59,34,30.09,29.91,13,1,26,0.00
2013-2-23,47.8,36.3,22.0,17.6,12.9,8.3,59,39,26,30.14,29.75,12,1,16,0.00
2013-2-24,38.4,32.4,25.5,22.1,14.5,5.1,87,49,28,29.94,29.64,21,5,28,0.00
2013-2-25,46.0,35.4,21.8,23.1,13.7,7.3,88,46,21,30.19,29.94,17,2,20,0.05
2013-2-26,44.2,32.1,26.5,14.6,10.6,3.9,59,42,23,30.14,29.85,20,2,27,0.00
2013-2-27,45.1,32.7,19.9,11.7,7.9,4.8,66,38,19,30.37,30.14,9,0,12,0.00
2013-2-28,29.6,28.9,28.0,4.5,3.3,2.6,36,33,31,30.35,30.34,0,0,3,0.00
2013-3-1,57.2,49.4,40.5,20.9,18.3,13.4,44,30,23,30.40,30.23,17,2,18,0.00
2013-3-2,65.0,48.5,33.7,25.7,22.5,19.2,62,38,21,30.39,30.11,11,1,13,0.00
2013-3-3,64.8,52.9,39.1,24.4,19.2,10.3,43,28,12,30.11,29.74,17,2,17,0.00
2013-3-4,60.7,52.6,43.9,25.6,21.6,19.1,41,30,21,29.98,29.64,20,3,34,0.00
2013-3-5,60.4,46.2,29.6,22.6,19.0,15.7,64,36,18,30.24,29.98,5,1,14,0.00
2013-3-6,66.0,54.4,45.8,28.1,24.0,19.3,39,31,23,30.12,29.80,13,2,22,0.00
2013-3-7,69.6,56.4,38.5,25.4,20.8,15.4,47,26,17,29.93,29.72,14,1,18,0.00
2013-3-8,60.0,47.5,38.7,40.4,26.5,14.4,84,48,24,29.81,29.60,20,2,26,0.20
2013-3-9,42.9,37.0,31.6,32.9,23.4,17.3,83,59,36,30.00,29.69,20,2,21,0.01
2013-3-10,49.8,38.2,28.8,27.2,22.7,16.0,82,57,30,30.19,29.99,17,1,22,0.00
2013-3-11,60.8,46.5,34.4,22.5,18.4,14.6,50,34,18,30.22,29.95,13,1,20,0.00
2013-3-12,66.4,50.6,34.4,26.6,23.0,20.2,57,35,21,30.16,30.01,8,1,15,0.00
2013-3-13,69.7,53.7,36.9,28.6,24.3,18.7,58,34,20,30.25,30.07,10,1,16,0.00
2013-3-14,74.7,57.0,42.7,27.3,22.3,17.8,44,28,14,30.21,30.02,9,1,14,0.00
2013-3-15,79.7,61.2,43.9,26.6,21.0,17.3,38,23,11,30.05,29.73,10,0,13,0.00
2013-3-16,70.5,60.0,50.0,33.0,23.6,16.8,46,25,18,29.74,29.53,18,3,22,0.00
2013-3-17,67.5,54.1,42.9,35.3,24.6,4.5,64,38,9,29.70,29.52,24,4,29,0.00
2013-3-18,64.9,52.2,38.6,18.9,12.1,7.3,44,21,13,29.88,29.71,23,3,26,0.00
2013-3-19,60.4,49.9,40.9,20.5,14.6,7.7,33,24,18,30.08,29.85,13,1,21,0.00
2013-3-20,62.9,48.8,31.0,28.0,20.4,14.4,55,34,21,30.18,29.78,14,2,20,0.00
2013-3-21,69.2,57.4,48.8,32.1,22.6,11.6,46,29,11,29.78,29.45,29,5,35,0.00
2013-3-22,64.5,51.2,36.4,27.2,16.1,10.1,41,26,15,29.68,29.47,21,3,26,0.00
2013-3-23,49.8,39.0,29.0,27.0,6.4,-8.0,50,27,14,30.07,29.58,29,7,38,0.00
2013-3-24,51.5,37.1,23.5,10.4,-0.2,-7.0,52,21,15,30.19,29.95,21,2,26,0.00
2013-3-25,54.9,39.1,22.8,14.1,8.7,1.3,50,29,19,30.24,30.07,19,1,21,0.00
2013-3-26,65.0,47.7,29.5,18.6,13.6,8.5,45,27,16,30.19,29.88,19,3,26,0.00
2013-3-27,71.1,58.8,46.1,22.2,17.0,14.0,29,20,14,29.95,29.78,19,2,20,0.00
2013-3-28,71.2,60.6,46.8,27.6,20.4,15.0,30,21,15,29.93,29.80,26,2,27,0.00
2013-3-29,72.7,59.7,46.0,26.4,23.7,20.9,42,26,15,29.99,29.82,11,1,16,0.00
2013-3-30,72.5,59.0,43.0,28.5,23.8,20.1,43,27,16,29.99,29.79,14,1,21,0.00
2013-3-31,71.5,60.0,49.1,33.5,29.2,26.6,44,32,22,29.90,29.73,9,1,14,0.00
2013-4-1,73.6,62.7,47.7,29.1,23.2,14.5,42,24,13,29.84,29.61,17,1,22,0.00
2013-4-2,66.6,55.6,45.8,25.0,20.1,15.9,35,25,16,29.81,29.59,21,2,24,0.00
2013-4-3,65.0,50.7,36.8,31.0,26.6,22.1,70,42,20,30.01,29.81,14,1,22,0.00
2013-4-4,73.4,55.9,38.0,27.9,22.7,16.6,56,31,14,30.11,29.90,8,0,11,0.00
2013-4-5,76.2,66.6,55.5,25.0,20.6,16.2,23,17,13,29.93,29.56,19,3,25,0.00
2013-4-6,75.2,62.7,48.1,29.4,24.9,21.1,40,25,15,29.76,29.57,13,1,32,0.00
2013-4-7,73.2,63.0,47.9,29.3,24.1,20.6,41,24,15,29.67,29.49,18,2,21,0.00
2013-4-8,75.4,63.0,49.7,31.0,25.3,19.6,40,25,14,29.53,29.09,28,6,38,0.00
2013-4-9,53.7,44.4,37.4,34.0,30.2,24.7,84,59,38,29.76,29.15,20,3,24,0.13
2013-4-10,45.2,39.4,34.3,32.8,25.9,20.4,87,60,42,29.96,29.76,15,2,19,0.06
2013-4-11,61.6,45.9,29.8,31.3,24.6,17.3,68,45,28,29.99,29.78,18,3,27,0.00
2013-4-12,67.7,56.2,42.7,34.3,30.0,25.9,65,39,22,29.83,29.64,12,0,17,0.00
2013-4-13,73.0,60.6,41.8,30.4,25.5,20.2,58,29,15,29.74,29.46,15,3,26,0.00
2013-4-14,74.8,63.8,54.6,30.1,26.0,23.2,32,24,16,29.49,29.33,20,7,31,0.00
2013-4-15,80.5,63.8,47.5,29.0,24.2,18.7,39,24,12,29.53,29.31,24,4,27,0.00
2013-4-16,79.3,65.5,53.2,28.8,21.7,14.5,31,20,10,29.57,29.33,25,6,38,0.00
2013-4-17,59.0,51.1,39.1,28.9,20.8,13.3,43,31,18,29.83,29.40,24,5,30,0.00
2013-4-18,46.8,38.8,29.4,16.8,8.2,4.0,42,29,18,30.24,29.83,22,6,28,0.00
2013-4-19,63.4,44.7,26.5,14.5,8.7,4.7,53,25,13,30.34,29.94,12,1,14,0.00
2013-4-20,66.9,55.4,43.6,23.0,13.6,3.1,28,19,15,29.95,29.69,22,4,31,0.00
2013-4-21,73.5,56.6,41.0,26.2,21.3,15.7,51,28,12,30.00,29.80,16,2,20,0.00
2013-4-22,80.6,65.0,47.8,25.8,21.2,17.5,37,20,11,29.84,29.53,18,4,30,0.00
2013-4-23,66.4,57.1,43.3,29.3,20.1,0.0,48,25,11,29.91,29.57,20,3,29,0.00
2013-4-24,69.9,49.6,28.4,25.1,19.5,14.1,62,34,16,30.11,29.91,8,0,13,0.00
2013-4-25,76.1,59.9,46.5,33.5,26.6,21.8,43,29,17,29.97,29.62,22,3,33,0.00
2013-4-26,56.6,50.9,47.6,30.1,29.7,29.1,50,44,36,29.86,29.81,4,0,6,0.00
2013-4-27,76.3,69.6,56.8,29.8,15.5,8.6,24,13,10,30.02,29.84,9,1,14,0.00
2013-4-28,79.9,64.2,45.3,22.7,16.4,9.5,35,17,9,29.89,29.64,11,1,17,0.00
2013-4-29,84.9,68.3,50.0,28.2,21.2,13.2,28,17,12,29.71,29.45,16,2,21,0.00
2013-4-30,84.7,70.9,56.7,28.6,23.2,19.4,25,17,10,29.56,29.40,16,3,23,0.00
2013-5-1,81.4,68.5,53.9,29.1,21.4,7.1,31,17,11,29.88,29.50,16,3,26,0.00
2013-5-2,61.0,48.9,37.7,28.1,20.3,14.4,58,34,19,30.31,29.89,12,1,18,0.00
2013-5-3,45.1,38.3,32.7,17.3,14.9,13.9,51,38,29,30.32,30.29,6,0,7,0.00
2013-5-8,60.2,60.2,60.2,28.6,28.6,28.6,30,30,30,29.80,29.80,2,2,33,0.00
2013-5-11,71.4,63.0,53.9,41.1,35.5,31.1,57,37,26,30.19,30.10,15,2,23,0.00
2013-5-12,78.7,62.6,46.0,37.0,33.9,31.3,61,37,19,30.18,29.92,11,1,18,0.00
2013-5-13,83.9,69.5,55.1,36.9,32.8,29.4,38,27,17,30.04,29.81,9,1,17,0.00
2013-5-14,86.6,71.2,57.9,42.6,30.7,19.2,42,23,15,29.84,29.58,13,2,22,0.00
2013-5-15,84.9,71.5,61.4,43.9,38.3,28.0,45,32,16,29.70,29.51,16,1,23,0.00
2013-5-16,86.0,72.9,56.0,31.3,26.8,20.5,33,19,10,29.71,29.51,13,2,25,0.00
2013-5-17,87.3,72.3,54.6,32.4,27.0,20.2,33,19,12,29.72,29.52,23,2,30,0.00
2013-5-18,76.5,69.2,57.5,32.0,26.0,19.5,31,20,14,29.68,29.49,15,3,21,0.00
2013-5-19,73.1,63.0,55.2,35.7,31.8,23.4,47,32,17,29.69,29.59,21,4,28,0.00
2013-5-20,75.0,61.4,49.5,35.7,30.8,18.0,54,34,12,29.77,29.60,21,3,26,0.00
2013-5-21,79.8,63.3,47.0,35.5,31.6,26.6,54,33,15,29.85,29.63,16,1,21,0.00
2013-5-22,86.7,71.6,54.0,30.5,27.4,23.7,37,21,11,29.70,29.48,13,2,19,0.00
2013-5-23,91.1,76.2,58.2,46.2,27.9,21.7,38,18,11,29.67,29.46,18,2,29,0.00
2013-5-24,88.4,74.3,58.1,44.5,36.1,26.6,48,28,13,29.74,29.57,16,2,22,0.00
2013-5-25,90.6,75.9,56.7,42.9,28.9,21.4,34,19,10,29.77,29.51,20,2,26,0.00
2013-5-26,88.8,74.2,56.3,29.5,24.0,17.1,31,16,8,29.73,29.52,15,2,19,0.00
2013-5-27,83.9,70.4,56.4,29.6,22.1,15.7,29,17,10,29.70,29.52,20,2,21,0.00
2013-5-28,83.6,69.4,54.2,27.4,23.9,20.6,33,19,10,29.58,29.33,10,2,17,0.00
2013-5-31,73.3,70.3,67.6,17.6,16.0,15.0,13,12,12,29.67,29.61,15,6,29,0.00
2013-6-1,87.4,71.0,51.4,34.6,20.9,14.9,28,16,8,29.80,29.68,21,2,24,0.00
2013-6-2,87.4,74.0,62.2,44.1,38.1,32.0,35,28,21,29.80,29.52,18,2,29,0.00
2013-6-3,91.5,77.2,64.7,49.9,40.8,22.9,52,31,11,29.68,29.44,16,3,22,0.00
2013-6-4,93.1,79.2,61.7,36.3,28.7,22.4,29,17,9,29.66,29.47,11,2,22,0.00
2013-6-5,89.5,77.9,63.6,48.5,37.2,29.8,37,24,13,29.62,29.46,17,2,40,0.00
2013-6-6,91.1,72.6,55.4,45.5,40.4,33.2,56,34,16,29.72,29.56,15,1,19,0.00
2013-6-7,90.8,73.4,58.3,50.6,44.5,36.0,69,39,17,29.72,29.45,10,1,20,0.00
2013-6-8,94.2,78.9,62.5,45.0,38.8,32.0,43,26,12,29.59,29.39,19,3,29,0.00
2013-6-9,96.6,80.9,65.8,49.4,46.1,39.1,50,31,15,29.65,29.50,17,2,22,0.00
2013-6-10,101.3,86.5,72.0,50.5,42.6,35.1,42,24,11,29.64,29.44,21,3,29,0.00
2013-6-11,100.3,86.3,67.6,40.0,33.7,24.9,30,16,9,29.64,29.45,15,1,25,0.00
2013-6-12,99.5,81.2,64.1,40.2,32.4,26.7,31,18,10,29.71,29.56,7,1,15,0.00
2013-6-13,96.9,80.2,67.6,54.3,42.1,34.9,55,27,15,29.68,29.51,27,1,28,0.01
2013-6-14,91.3,76.6,67.2,55.8,49.5,45.7,56,40,22,29.64,29.48,14,1,18,0.05
2013-6-15,94.2,77.9,62.5,51.4,44.2,37.2,58,34,15,29.75,29.59,15,2,33,0.00
2013-6-16,93.7,78.3,64.0,51.1,43.4,39.8,47,30,17,29.76,29.61,19,2,24,0.05
2013-6-17,94.2,78.3,62.7,48.4,43.1,39.0,50,31,15,29.79,29.56,14,1,28,0.00
2013-6-18,92.0,78.5,64.5,52.6,47.7,42.0,59,37,19,29.74,29.50,14,2,28,0.00
2013-6-19,96.5,82.7,67.3,52.7,35.4,21.9,42,22,7,29.60,29.37,18,3,23,0.00
2013-6-20,96.5,80.1,61.6,33.3,24.7,16.2,29,14,6,29.64,29.44,14,2,20,0.00
2013-6-21,95.7,80.0,65.3,48.4,30.8,14.3,45,19,8,29.67,29.46,14,2,21,0.00
2013-6-22,93.5,78.5,60.9,32.4,26.8,22.9,31,16,9,29.66,29.46,13,2,18,0.00
2013-6-23,94.3,79.7,61.6,31.6,25.9,19.9,23,14,9,29.65,29.43,12,1,17,0.00
2013-6-24,94.0,80.0,63.7,34.4,26.7,19.6,27,15,9,29.63,29.46,16,2,19,0.00
2013-6-25,94.8,79.1,61.9,35.7,29.6,22.4,29,17,11,29.71,29.56,12,1,17,0.00
2013-6-26,99.8,82.5,63.8,40.1,34.1,28.3,34,19,12,29.76,29.58,12,1,13,0.00
2013-6-27,105.2,86.3,66.2,40.5,36.5,31.3,34,18,10,29.74,29.57,13,1,22,0.00
2013-6-28,96.5,84.8,74.2,51.0,46.0,37.9,44,27,17,29.78,29.63,19,3,30,0.01
2013-6-29,94.6,83.4,76.1,48.1,45.3,41.2,37,27,18,29.73,29.59,19,2,25,0.00
2013-6-30,81.0,75.0,67.8,51.5,48.9,46.5,56,41,31,29.79,29.60,21,5,28,0.00
2013-7-1,89.0,71.6,60.0,56.9,51.4,44.7,79,52,28,29.88,29.72,14,1,21,0.05
2013-7-2,87.1,76.3,66.0,50.6,47.3,43.5,47,37,26,29.91,29.69,18,2,20,0.00
2013-7-3,88.6,78.2,67.4,56.5,51.5,43.6,61,41,26,29.84,29.59,10,1,16,0.03
2013-7-4,92.6,76.9,61.8,55.2,51.4,45.0,69,44,24,29.69,29.52,15,1,21,0.02
2013-7-5,94.9,76.7,66.4,62.3,54.5,47.1,85,49,25,29.64,29.43,10,1,22,0.34
2013-7-6,92.4,73.6,63.5,62.3,56.0,49.1,87,60,24,29.72,29.53,16,1,22,0.21
2013-7-7,95.5,78.6,63.6,59.2,55.5,50.4,84,50,23,29.72,29.55,6,1,16,0.01
2013-7-8,94.8,79.3,68.5,59.9,54.7,51.7,69,44,27,29.81,29.62,10,1,17,0.01
2013-7-9,94.6,79.1,66.2,60.5,56.0,47.4,76,48,27,29.83,29.67,10,1,20,0.00
2013-7-10,95.7,83.2,70.6,58.0,53.5,49.7,59,38,22,29.76,29.59,12,1,21,0.00
2013-7-11,89.9,78.2,68.7,59.2,55.8,51.9,68,48,31,29.78,29.58,14,2,17,0.00
2013-7-12,91.3,78.6,66.4,59.8,56.0,51.8,71,48,28,29.73,29.57,9,1,15,0.00
2013-7-13,95.1,80.4,68.3,57.5,54.5,51.0,68,43,23,29.73,29.58,15,1,20,0.00
2013-7-14,95.4,78.4,66.4,61.7,55.1,50.7,82,48,23,29.74,29.48,19,1,33,0.20
2013-7-15,74.1,67.6,64.9,61.1,55.0,48.4,85,65,48,29.87,29.66,17,2,22,0.01
2013-7-16,79.4,69.0,61.8,50.9,48.1,45.0,63,48,35,29.96,29.82,11,1,18,0.00
2013-7-17,80.8,68.7,57.8,53.8,51.1,47.3,82,56,35,30.04,29.89,9,1,17,0.05
2013-7-18,84.6,72.6,59.4,55.8,52.7,49.6,73,51,35,29.99,29.76,9,1,15,0.00
2013-7-19,87.1,69.3,55.8,64.6,58.7,52.6,95,72,40,29.82,29.66,11,0,19,1.06
2013-7-20,89.0,79.1,69.8,64.3,57.2,53.9,60,48,35,29.72,29.60,12,1,14,0.02
2013-7-21,89.1,76.3,65.7,59.9,56.1,49.0,77,52,30,29.71,29.56,13,1,21,0.00
2013-7-22,94.5,78.9,64.2,57.0,53.1,47.6,72,44,21,29.71,29.55,9,1,15,0.00
2013-7-23,90.0,76.5,66.1,56.1,51.2,45.7,63,43,24,29.67,29.52,5,0,13,0.00
2013-7-24,89.9,73.1,66.3,58.4,54.2,50.8,69,53,31,29.82,29.61,17,2,25,0.00
2013-7-25,86.5,73.8,64.1,59.2,57.2,55.4,76,58,38,29.88,29.73,10,1,17,0.00
2013-7-26,86.6,68.2,60.8,63.9,60.2,56.2,95,79,40,29.92,29.78,10,0,19,1.56
2013-7-27,73.4,72.4,71.6,58.9,58.2,57.7,63,61,59,29.75,29.73,3,1,14,0.00
2013-7-28,85.2,74.9,67.6,61.8,57.4,52.4,76,57,34,29.73,29.56,17,1,24,0.14
2013-7-29,88.1,72.5,62.2,60.3,54.6,46.5,83,57,26,29.80,29.68,13,1,19,0.00
2013-7-30,94.1,79.2,62.7,52.9,49.3,46.3,63,37,22,29.91,29.75,7,0,13,0.00
2013-7-31,95.8,83.7,70.5,54.5,50.6,45.1,50,33,19,29.87,29.69,11,1,15,0.00
2013-8-1,88.3,76.2,67.3,61.6,55.7,51.1,77,51,34,29.83,29.69,10,1,18,0.02
2013-8-2,91.3,74.1,63.2,61.2,57.8,53.7,83,60,29,29.81,29.65,16,1,23,0.08
2013-8-3,92.4,75.5,61.2,58.9,55.5,51.3,84,54,27,29.82,29.69,10,0,11,0.00
2013-8-4,94.3,78.5,64.1,61.2,55.9,50.8,84,49,26,29.79,29.62,18,1,27,0.26
2013-8-5,90.2,73.9,61.7,61.2,57.5,53.6,88,61,31,29.81,29.66,11,0,18,0.04
2013-8-6,89.3,75.6,64.7,56.3,53.2,49.5,65,47,28,29.74,29.62,11,1,18,0.00
2013-8-7,82.7,70.7,60.7,58.4,53.6,51.3,74,56,36,29.76,29.67,13,1,19,0.01
2013-8-8,85.1,74.9,63.4,55.0,50.2,44.6,74,44,27,29.78,29.68,15,2,19,0.00
2013-8-9,89.7,74.1,59.0,52.6,47.5,42.5,67,41,21,29.86,29.74,10,0,14,0.00
2013-8-10,73.5,65.9,60.9,52.0,50.0,45.6,70,58,40,29.96,29.84,10,0,13,0.00
2013-8-11,83.7,75.1,62.5,55.3,52.6,49.6,77,47,32,29.98,29.81,9,1,10,0.01
2013-8-12,85.7,72.9,66.1,58.7,54.7,49.3,72,54,34,29.90,29.75,9,1,15,0.00
2013-8-13,89.1,75.6,62.4,56.6,50.6,44.1,67,44,25,29.88,29.73,9,0,13,0.00
2013-8-14,89.1,74.0,61.5,57.0,50.6,42.8,72,46,21,29.85,29.70,27,0,31,0.00
2013-8-15,91.3,75.3,61.6,55.8,50.4,44.6,69,45,22,29.85,29.71,9,1,10,0.00
2013-8-16,94.8,80.8,66.7,53.0,47.6,41.1,53,34,16,29.82,29.66,9,1,14,0.00
2013-8-17,93.8,82.1,70.8,57.8,48.0,43.2,52,32,19,29.78,29.60,14,1,19,0.04
2013-8-18,93.7,79.2,67.3,54.6,50.5,47.7,58,39,22,29.79,29.64,13,0,15,0.00
2013-8-19,95.1,78.4,65.8,55.4,50.6,45.8,58,40,20,29.78,29.61,7,1,20,0.00
2013-8-20,91.7,75.0,61.8,60.6,55.1,52.4,76,52,29,29.80,29.63,8,0,15,0.03
2013-8-21,89.2,77.1,64.1,56.9,52.9,47.6,72,45,29,29.79,29.66,11,1,14,0.00
2013-8-22,91.3,79.7,65.3,59.5,48.9,40.2,52,35,27,29.81,29.62,10,1,16,0.00
2013-8-23,87.3,75.4,61.1,52.6,47.1,38.2,52,37,29,29.78,29.63,10,1,18,0.00
2013-8-24,85.4,74.9,67.1,58.0,52.9,47.1,64,47,34,29.83,29.69,10,1,17,0.00
2013-8-25,81.5,71.0,65.3,64.1,58.3,53.7,85,66,42,29.91,29.82,10,0,20,0.29
2013-8-26,89.1,74.6,62.5,65.1,56.2,48.3,79,56,31,29.95,29.77,7,1,15,0.11
2013-8-27,89.1,76.0,62.5,56.6,52.2,44.8,69,46,30,29.84,29.67,8,1,13,0.00
2013-8-28,87.9,80.5,69.0,56.9,53.7,48.2,57,40,31,29.81,29.70,11,2,19,0.00
2013-8-30,93.5,86.8,78.7,58.6,52.8,48.8,40,32,25,29.78,29.67,9,2,19,0.00
2013-8-31,90.1,74.9,65.4,58.2,54.7,50.8,70,51,30,29.74,29.64,5,0,7,0.00
2013-9-2,89.8,80.7,67.2,57.7,54.7,51.3,71,42,31,29.85,29.69,7,0,21,0.13
2013-9-3,92.6,78.0,65.5,60.7,55.1,52.0,73,48,27,29.83,29.67,12,1,16,0.34
2013-9-4,92.3,77.9,65.8,57.8,49.0,37.6,70,39,19,29.89,29.75,10,1,14,0.00
2013-9-5,90.7,77.9,62.9,49.6,43.4,37.6,53,31,20,29.89,29.76,12,1,17,0.00
2013-9-6,90.8,79.5,62.7,48.0,44.1,37.7,44,29,21,29.88,29.69,9,1,16,0.00
2013-9-7,90.0,76.4,65.3,58.2,50.6,44.7,60,42,28,29.80,29.65,13,0,17,0.00
2013-9-8,89.6,75.2,62.1,53.9,49.2,45.2,59,41,27,29.74,29.55,9,1,18,0.00
2013-9-9,87.1,73.7,62.7,61.2,51.6,45.9,63,47,31,29.67,29.50,13,1,18,0.04
2013-9-10,70.7,64.8,61.1,60.4,56.5,52.0,94,76,57,29.83,29.64,9,0,18,0.69
2013-9-11,82.4,68.6,60.3,62.8,57.9,50.9,95,73,34,29.90,29.78,6,0,10,0.02
2013-9-12,70.0,63.1,58.7,64.4,57.9,54.1,93,84,69,29.87,29.77,10,0,16,1.15
2013-9-13,71.0,62.4,57.6,60.4,57.8,54.3,94,86,62,29.87,29.75,7,0,14,0.31
2013-9-14,75.2,63.7,56.9,58.3,56.0,53.7,93,78,52,29.85,29.73,9,0,13,0.83
2013-9-15,58.1,56.4,55.8,56.1,54.2,53.5,95,93,89,29.87,29.79,2,0,10,0.29
2013-9-17,80.7,75.3,62.9,58.7,55.4,53.5,79,51,40,29.86,29.67,11,2,13,0.00
2013-9-18,82.4,71.7,64.5,58.9,55.9,50.1,74,59,36,29.72,29.56,14,1,16,0.00
2013-9-19,83.0,70.6,58.2,59.6,52.5,38.8,92,57,31,29.72,29.62,6,0,13,0.18
2013-9-20,82.6,69.1,59.3,54.9,50.3,42.0,70,52,36,29.82,29.70,9,0,12,0.00
2013-9-21,80.8,67.6,54.5,56.8,52.2,49.0,87,60,38,29.84,29.65,14,1,14,0.00
2013-9-22,79.0,66.5,55.9,55.9,51.2,42.1,92,61,33,29.69,29.35,22,3,44,0.48
2013-9-23,70.4,58.5,45.6,42.9,36.9,34.1,71,47,29,29.93,29.56,18,2,21,0.00
2013-9-24,77.5,61.5,46.1,44.9,40.6,36.5,71,49,28,30.03,29.81,7,0,13,0.00
2013-9-25,83.0,69.0,55.4,46.0,41.2,34.7,54,37,25,29.81,29.46,15,2,21,0.00
2013-9-26,81.9,68.6,55.8,44.2,40.0,35.9,51,37,23,29.60,29.45,19,2,23,0.00
2013-9-27,71.9,60.9,47.1,49.3,40.4,28.4,60,47,39,29.86,29.51,16,2,24,0.00
2013-9-28,66.1,49.5,38.2,32.1,26.6,23.2,61,43,21,30.14,29.86,6,0,13,0.00
2013-9-29,76.2,54.7,41.6,32.7,28.5,24.9,62,39,18,30.13,29.89,7,0,9,0.00
2013-9-30,82.6,63.9,47.3,37.7,30.5,26.5,51,30,17,29.91,29.68,10,0,13,0.00
2013-10-1,83.3,66.5,49.8,35.4,29.5,24.5,48,27,12,29.82,29.69,7,0,11,0.00
2013-10-2,79.7,65.3,49.1,35.7,31.1,27.0,45,29,16,29.83,29.67,7,0,12,0.00
2013-10-3,76.9,65.2,51.8,38.2,34.0,30.7,49,32,19,29.72,29.51,12,1,18,0.00
2013-10-4,61.3,54.7,47.2,33.7,23.4,13.4,47,31,18,30.01,29.60,14,2,21,0.00
2013-10-5,59.8,48.6,36.3,23.3,20.7,16.5,56,34,21,30.21,30.01,12,1,18,0.00
2013-10-6,71.6,52.6,37.3,28.2,23.2,17.4,58,34,18,30.29,30.12,4,0,9,0.00
2013-10-7,75.2,58.5,40.0,30.9,26.1,19.6,56,31,17,30.17,29.92,5,0,16,0.00
2013-10-8,77.7,64.9,52.8,36.4,30.7,26.1,39,28,20,29.93,29.61,11,1,15,0.00
2013-10-9,75.1,63.1,47.8,38.8,33.6,29.1,53,34,21,29.72,29.60,11,1,18,0.00
2013-10-10,69.6,57.4,42.1,46.8,35.8,27.6,80,46,30,29.81,29.48,31,4,37,0.12
2013-10-11,60.8,54.1,39.8,33.5,31.6,28.2,63,43,34,30.00,29.80,10,1,17,0.00
2013-10-12,70.3,53.2,35.5,37.4,33.3,28.4,81,50,27,30.11,29.94,7,0,16,0.00
2013-10-13,76.7,60.6,44.2,45.4,38.6,33.9,75,47,24,29.99,29.74,15,2,26,0.00
2013-10-14,66.9,58.1,47.5,42.7,30.9,20.5,62,37,22,29.88,29.75,17,1,21,0.00
2013-10-15,65.1,50.5,36.5,34.8,28.1,22.7,63,43,28,29.98,29.80,18,1,28,0.00
2013-10-16,59.6,50.1,42.4,35.4,28.5,15.4,67,46,24,30.04,29.89,12,1,19,0.00
2013-10-17,64.4,47.5,32.5,27.0,21.3,18.0,61,37,21,30.11,29.89,5,0,11,0.00
2013-10-18,60.9,49.1,36.1,23.8,19.9,16.0,56,33,20,30.09,29.89,22,2,23,0.00
2013-10-19,65.5,47.6,30.4,28.1,21.9,17.4,71,39,21,30.16,29.97,4,0,9,0.00
2013-10-20,69.0,53.6,35.9,26.0,20.8,17.6,54,29,16,30.02,29.75,15,1,17,0.00
2013-10-21,63.6,51.5,38.3,31.7,26.4,19.0,67,39,25,30.08,29.85,5,0,11,0.00
2013-10-22,68.9,52.3,36.9,29.9,25.1,17.4,65,38,18,30.20,30.04,5,0,7,0.00
2013-10-23,71.7,54.7,38.6,33.5,27.0,18.3,63,36,22,30.11,29.95,6,0,10,0.00
2013-10-24,74.4,57.8,43.5,47.2,32.4,24.0,82,41,23,30.07,29.90,23,1,25,0.05
2013-10-25,65.8,53.0,45.4,48.1,43.3,37.1,90,71,45,30.09,29.94,14,1,24,0.05
2013-10-26,65.8,51.2,38.7,43.5,37.8,34.1,88,63,36,30.21,30.07,7,0,15,0.00
2013-10-27,68.6,54.4,40.6,39.5,35.5,33.5,78,52,29,30.14,29.79,6,0,12,0.01
2013-10-28,68.9,58.5,48.6,40.8,33.7,22.8,68,42,23,29.79,29.66,8,1,15,0.00
2013-10-29,67.3,58.9,50.8,31.1,27.2,23.3,38,30,23,29.84,29.63,17,2,32,0.00
2013-10-30,59.5,49.5,38.5,36.3,31.3,25.2,69,50,32,29.88,29.64,12,1,24,0.00
2013-10-31,53.2,43.4,33.2,29.1,25.9,23.5,73,52,32,30.08,29.88,15,2,23,0.00
2013-11-1,58.6,46.1,34.4,29.4,26.2,24.5,73,48,29,30.22,30.04,13,1,20,0.00
2013-11-2,62.9,48.3,33.2,30.4,25.9,23.1,75,45,25,30.29,29.98,7,0,15,0.00
2013-11-3,66.2,55.3,47.3,35.6,30.0,22.4,53,39,27,29.97,29.61,16,1,19,0.00
2013-11-4,65.0,53.8,40.0,40.9,35.1,31.3,78,51,33,29.81,29.64,12,2,17,0.00
2013-11-18,56.3,47.5,40.0,31.8,29.6,27.4,66,51,36,30.21,30.08,6,0,10,0.00
2013-11-19,62.4,47.6,34.3,34.8,31.5,26.7,79,56,34,30.10,29.81,5,0,10,0.00
2013-11-20,48.2,43.8,41.1,40.5,35.2,28.7,88,73,53,29.90,29.80,4,0,10,0.23
2013-11-21,56.2,46.8,41.5,43.6,41.0,37.9,89,81,57,30.02,29.89,7,0,14,0.20
2013-11-22,44.3,36.2,33.3,41.5,30.2,25.1,91,79,64,30.37,29.99,10,1,15,0.04
2013-11-23,37.7,33.5,28.9,28.8,24.1,19.1,84,69,56,30.45,30.30,16,2,23,0.02
2013-11-24,30.3,27.2,23.5,23.4,21.8,19.6,88,80,72,30.40,30.23,7,0,10,0.09
2013-11-25,43.9,32.7,26.2,29.2,25.8,22.1,90,77,53,30.41,30.19,9,0,12,0.03
2013-11-26,45.5,33.1,25.5,29.3,25.0,21.5,88,73,53,30.51,30.41,6,1,9,0.00
2013-11-27,45.6,35.4,25.6,28.6,25.2,21.7,87,67,48,30.46,30.24,5,0,9,0.00
2013-11-28,50.2,36.7,26.6,27.6,24.2,20.3,85,62,39,30.32,30.21,4,0,6,0.00
2013-11-29,55.2,39.9,28.8,30.5,26.5,21.4,82,60,38,30.40,30.25,4,0,5,0.00
2013-11-30,56.0,42.0,30.8,32.6,29.4,25.9,84,63,40,30.33,30.17,4,0,7,0.00
2013-12-1,47.5,38.0,32.1,31.3,28.0,24.4,85,68,51,30.30,30.20,12,2,17,0.00
2013-12-2,50.4,38.1,27.9,28.7,25.3,22.3,80,61,42,30.23,29.88,10,1,13,0.00
2013-12-3,63.3,49.0,35.4,25.5,21.4,16.2,59,36,18,29.89,29.54,13,1,18,0.00
2013-12-4,58.0,46.5,35.2,30.8,23.8,17.1,67,42,25,29.76,29.45,25,4,39,0.00
2013-12-5,36.1,27.6,14.3,30.1,23.2,10.6,90,84,55,30.08,29.73,5,0,10,0.10
2013-12-6,35.5,23.2,11.3,23.4,14.5,8.2,90,71,43,30.35,30.08,5,0,7,0.15
2013-12-7,32.1,24.5,13.8,28.1,19.8,10.0,87,82,75,30.27,29.99,10,0,16,0.00
2013-12-8,31.5,28.4,24.0,25.9,16.1,10.2,85,60,49,30.09,29.90,14,2,20,0.00
2013-12-9,27.2,22.3,13.1,15.1,6.8,0.0,68,52,33,30.63,30.09,21,3,23,0.00
2013-12-10,35.5,21.1,8.2,17.6,3.8,0.0,73,48,28,30.68,30.48,14,1,20,0.00
2013-12-11,41.3,27.3,15.5,17.9,11.6,5.5,78,53,33,30.66,30.50,4,0,7,0.00
2013-12-12,40.4,30.1,19.6,23.1,17.3,12.0,78,60,43,30.63,30.23,3,0,9,0.00
2013-12-13,43.5,35.7,31.6,31.7,25.5,18.7,88,67,54,30.22,30.00,15,1,21,0.00
2013-12-14,45.0,33.8,24.7,20.7,17.9,16.0,75,53,35,30.47,30.15,11,0,15,0.00
2013-12-15,45.6,35.4,27.3,20.9,17.8,15.2,62,49,34,30.49,30.35,11,1,17,0.00
2013-12-16,53.9,40.3,28.5,23.7,20.9,18.4,68,47,29,30.45,30.31,11,1,14,0.00
2013-12-17,55.3,42.0,28.8,24.2,21.5,18.8,69,45,27,30.43,30.28,9,1,13,0.00
2013-12-18,55.2,40.2,28.9,27.8,22.2,17.8,77,50,30,30.28,29.92,4,0,7,0.00
2013-12-19,57.1,45.6,33.0,26.0,22.5,17.2,62,41,29,29.92,29.62,9,0,15,0.00
2013-12-20,53.4,41.7,32.0,31.7,23.7,18.7,72,50,29,29.75,29.57,10,0,13,0.00
2013-12-21,39.8,35.0,32.2,31.5,26.9,22.7,91,73,57,29.88,29.50,15,2,20,0.27
2013-12-22,42.1,33.1,28.5,24.9,19.6,15.8,73,58,35,30.37,29.88,11,0,18,0.00
2013-12-23,45.9,35.0,27.4,21.5,18.1,15.2,61,50,35,30.54,30.36,9,0,18,0.00
2013-12-24,49.8,37.6,26.2,23.9,20.8,16.9,71,52,35,30.45,30.21,9,0,11,0.00
2013-12-25,45.2,34.0,24.0,21.5,16.6,11.0,79,51,27,30.47,30.31,10,1,12,0.00
2013-12-26,48.5,33.9,22.5,19.9,15.3,11.0,65,47,31,30.48,30.32,3,0,6,0.00
2013-12-27,53.4,36.3,23.2,20.4,16.7,13.8,71,47,25,30.45,30.27,3,0,5,0.00
2013-12-28,48.7,35.9,24.4,20.2,17.3,14.7,70,48,29,30.27,29.95,6,0,9,0.00
2013-12-29,46.7,38.2,31.9,24.2,21.0,18.5,62,50,39,30.21,29.99,7,0,12,0.00
2013-12-30,48.5,37.0,28.0,18.8,13.6,10.3,59,39,23,30.39,30.20,14,1,18,0.00
2013-12-31,50.4,37.5,24.9,22.8,16.8,13.4,79,45,28,30.39,30.17,5,0,7,0.00
2014-1-1,52.4,39.6,27.7,22.7,18.7,16.4,67,44,27,30.31,30.11,20,2,23,0.00
2014-1-2,52.3,36.3,22.6,22.8,15.7,11.7,78,46,21,30.41,30.28,5,0,7,0.00